sensor_id;sensor_type;location;lat;lon;timestamp;P1;durP1;ratioP1;P2;durP2;ratioP2
15921;SDS011;8060;50.948;3.146;2023-12-14T00:00:24;83.57;;;30.07;;
15921;SDS011;8060;50.948;3.146;2023-12-14T00:02:52;72.87;;;29.17;;
15921;SDS011;8060;50.948;3.146;2023-12-14T00:05:20;72.97;;;28.33;;
15921;SDS011;8060;50.948;3.146;2023-12-14T00:07:49;64.47;;;28.10;;
15921;SDS011;8060;50.948;3.146;2023-12-14T00:10:17;70.70;;;27.47;;
15921;SDS011;8060;50.948;3.146;2023-12-14T00:12:46;76.93;;;28.10;;
15921;SDS011;8060;50.948;3.146;2023-12-14T00:15:15;65.47;;;27.73;;
15921;SDS011;8060;50.948;3.146;2023-12-14T00:17:43;57.37;;;24.23;;
15921;SDS011;8060;50.948;3.146;2023-12-14T00:20:11;54.77;;;23.33;;
15921;SDS011;8060;50.948;3.146;2023-12-14T00:22:40;52.23;;;21.87;;
15921;SDS011;8060;50.948;3.146;2023-12-14T00:25:10;51.57;;;20.67;;
15921;SDS011;8060;50.948;3.146;2023-12-14T00:27:38;46.17;;;19.73;;
15921;SDS011;8060;50.948;3.146;2023-12-14T00:30:07;41.33;;;18.67;;
15921;SDS011;8060;50.948;3.146;2023-12-14T00:32:36;33.97;;;16.93;;
15921;SDS011;8060;50.948;3.146;2023-12-14T00:35:04;25.03;;;12.60;;
15921;SDS011;8060;50.948;3.146;2023-12-14T00:37:33;28.93;;;13.57;;
15921;SDS011;8060;50.948;3.146;2023-12-14T00:40:01;28.03;;;13.13;;
15921;SDS011;8060;50.948;3.146;2023-12-14T00:42:31;28.10;;;14.73;;
15921;SDS011;8060;50.948;3.146;2023-12-14T00:44:59;24.57;;;14.80;;
15921;SDS011;8060;50.948;3.146;2023-12-14T00:47:27;33.33;;;15.53;;
15921;SDS011;8060;50.948;3.146;2023-12-14T00:49:55;27.30;;;16.27;;
15921;SDS011;8060;50.948;3.146;2023-12-14T00:52:24;26.53;;;15.27;;
15921;SDS011;8060;50.948;3.146;2023-12-14T00:54:52;27.90;;;15.63;;
15921;SDS011;8060;50.948;3.146;2023-12-14T00:57:20;29.60;;;15.93;;
15921;SDS011;8060;50.948;3.146;2023-12-14T00:59:49;30.03;;;16.00;;
15921;SDS011;8060;50.948;3.146;2023-12-14T01:02:17;29.37;;;15.73;;
15921;SDS011;8060;50.948;3.146;2023-12-14T01:04:45;28.67;;;15.80;;
15921;SDS011;8060;50.948;3.146;2023-12-14T01:07:14;26.60;;;14.47;;
15921;SDS011;8060;50.948;3.146;2023-12-14T01:09:42;26.60;;;13.27;;
15921;SDS011;8060;50.948;3.146;2023-12-14T01:12:10;21.93;;;12.70;;
15921;SDS011;8060;50.948;3.146;2023-12-14T01:14:38;25.00;;;12.80;;
15921;SDS011;8060;50.948;3.146;2023-12-14T01:17:07;22.33;;;11.33;;
15921;SDS011;8060;50.948;3.146;2023-12-14T01:19:39;18.37;;;10.67;;
15921;SDS011;8060;50.948;3.146;2023-12-14T01:22:07;17.57;;;10.17;;
15921;SDS011;8060;50.948;3.146;2023-12-14T01:24:35;13.77;;;8.40;;
15921;SDS011;8060;50.948;3.146;2023-12-14T01:27:03;17.20;;;8.67;;
15921;SDS011;8060;50.948;3.146;2023-12-14T01:29:32;17.13;;;7.87;;
15921;SDS011;8060;50.948;3.146;2023-12-14T01:32:00;15.77;;;7.90;;
15921;SDS011;8060;50.948;3.146;2023-12-14T01:34:29;15.47;;;7.33;;
15921;SDS011;8060;50.948;3.146;2023-12-14T01:36:57;15.47;;;6.47;;
15921;SDS011;8060;50.948;3.146;2023-12-14T01:39:25;17.83;;;7.10;;
15921;SDS011;8060;50.948;3.146;2023-12-14T01:41:54;14.33;;;5.43;;
15921;SDS011;8060;50.948;3.146;2023-12-14T01:44:22;13.93;;;6.20;;
15921;SDS011;8060;50.948;3.146;2023-12-14T01:46:50;12.77;;;5.63;;
15921;SDS011;8060;50.948;3.146;2023-12-14T01:49:18;10.40;;;5.13;;
15921;SDS011;8060;50.948;3.146;2023-12-14T01:51:48;13.03;;;5.90;;
15921;SDS011;8060;50.948;3.146;2023-12-14T01:54:16;14.93;;;5.70;;
15921;SDS011;8060;50.948;3.146;2023-12-14T01:56:44;11.10;;;4.87;;
15921;SDS011;8060;50.948;3.146;2023-12-14T01:59:13;10.63;;;4.40;;
15921;SDS011;8060;50.948;3.146;2023-12-14T02:01:43;11.50;;;5.13;;
15921;SDS011;8060;50.948;3.146;2023-12-14T02:04:12;15.70;;;5.00;;
15921;SDS011;8060;50.948;3.146;2023-12-14T02:06:41;16.87;;;4.83;;
15921;SDS011;8060;50.948;3.146;2023-12-14T02:09:11;13.63;;;5.40;;
15921;SDS011;8060;50.948;3.146;2023-12-14T02:11:39;11.23;;;4.23;;
15921;SDS011;8060;50.948;3.146;2023-12-14T02:14:09;10.37;;;4.70;;
15921;SDS011;8060;50.948;3.146;2023-12-14T02:16:37;10.93;;;4.73;;
15921;SDS011;8060;50.948;3.146;2023-12-14T02:19:05;10.83;;;4.97;;
15921;SDS011;8060;50.948;3.146;2023-12-14T02:21:34;16.20;;;4.67;;
15921;SDS011;8060;50.948;3.146;2023-12-14T02:24:04;11.93;;;4.37;;
15921;SDS011;8060;50.948;3.146;2023-12-14T02:26:32;11.77;;;4.37;;
15921;SDS011;8060;50.948;3.146;2023-12-14T02:29:00;8.23;;;3.93;;
15921;SDS011;8060;50.948;3.146;2023-12-14T02:31:28;21.47;;;4.60;;
15921;SDS011;8060;50.948;3.146;2023-12-14T02:33:56;9.83;;;4.27;;
15921;SDS011;8060;50.948;3.146;2023-12-14T02:36:24;11.37;;;4.30;;
15921;SDS011;8060;50.948;3.146;2023-12-14T02:38:52;14.40;;;4.20;;
15921;SDS011;8060;50.948;3.146;2023-12-14T02:41:22;12.73;;;4.63;;
15921;SDS011;8060;50.948;3.146;2023-12-14T02:43:50;17.03;;;4.50;;
15921;SDS011;8060;50.948;3.146;2023-12-14T02:46:18;11.67;;;4.30;;
15921;SDS011;8060;50.948;3.146;2023-12-14T02:48:46;12.43;;;4.30;;
15921;SDS011;8060;50.948;3.146;2023-12-14T02:51:14;13.60;;;5.00;;
15921;SDS011;8060;50.948;3.146;2023-12-14T02:53:42;16.17;;;4.70;;
15921;SDS011;8060;50.948;3.146;2023-12-14T02:56:10;11.00;;;3.73;;
15921;SDS011;8060;50.948;3.146;2023-12-14T02:58:40;18.60;;;5.77;;
15921;SDS011;8060;50.948;3.146;2023-12-14T03:01:08;14.93;;;4.73;;
15921;SDS011;8060;50.948;3.146;2023-12-14T03:03:38;14.83;;;4.77;;
15921;SDS011;8060;50.948;3.146;2023-12-14T03:06:06;11.50;;;4.57;;
15921;SDS011;8060;50.948;3.146;2023-12-14T03:08:34;14.67;;;4.80;;
15921;SDS011;8060;50.948;3.146;2023-12-14T03:11:03;15.70;;;4.53;;
15921;SDS011;8060;50.948;3.146;2023-12-14T03:13:31;13.23;;;4.43;;
15921;SDS011;8060;50.948;3.146;2023-12-14T03:16:00;17.30;;;4.80;;
15921;SDS011;8060;50.948;3.146;2023-12-14T03:18:28;11.60;;;4.83;;
15921;SDS011;8060;50.948;3.146;2023-12-14T03:20:57;15.30;;;5.03;;
15921;SDS011;8060;50.948;3.146;2023-12-14T03:23:25;13.83;;;5.13;;
15921;SDS011;8060;50.948;3.146;2023-12-14T03:25:53;19.40;;;4.97;;
15921;SDS011;8060;50.948;3.146;2023-12-14T03:28:21;16.80;;;5.33;;
15921;SDS011;8060;50.948;3.146;2023-12-14T03:30:49;11.50;;;4.90;;
15921;SDS011;8060;50.948;3.146;2023-12-14T03:33:19;12.83;;;4.67;;
15921;SDS011;8060;50.948;3.146;2023-12-14T03:35:48;11.90;;;4.87;;
15921;SDS011;8060;50.948;3.146;2023-12-14T03:38:16;16.60;;;5.10;;
15921;SDS011;8060;50.948;3.146;2023-12-14T03:40:44;14.57;;;5.37;;
15921;SDS011;8060;50.948;3.146;2023-12-14T03:43:12;18.10;;;4.87;;
15921;SDS011;8060;50.948;3.146;2023-12-14T03:45:40;17.40;;;5.40;;
15921;SDS011;8060;50.948;3.146;2023-12-14T03:48:08;16.20;;;5.00;;
15921;SDS011;8060;50.948;3.146;2023-12-14T03:50:38;15.30;;;6.60;;
15921;SDS011;8060;50.948;3.146;2023-12-14T03:53:06;19.37;;;5.57;;
15921;SDS011;8060;50.948;3.146;2023-12-14T03:55:34;16.90;;;5.40;;
15921;SDS011;8060;50.948;3.146;2023-12-14T03:58:03;14.40;;;5.07;;
15921;SDS011;8060;50.948;3.146;2023-12-14T04:00:31;15.67;;;4.80;;
15921;SDS011;8060;50.948;3.146;2023-12-14T04:02:59;20.07;;;5.13;;
15921;SDS011;8060;50.948;3.146;2023-12-14T04:05:28;15.23;;;5.27;;
15921;SDS011;8060;50.948;3.146;2023-12-14T04:07:57;19.97;;;5.47;;
15921;SDS011;8060;50.948;3.146;2023-12-14T04:10:25;19.97;;;5.30;;
15921;SDS011;8060;50.948;3.146;2023-12-14T04:12:53;21.27;;;6.00;;
15921;SDS011;8060;50.948;3.146;2023-12-14T04:15:22;11.30;;;5.30;;
15921;SDS011;8060;50.948;3.146;2023-12-14T04:17:50;19.47;;;5.47;;
15921;SDS011;8060;50.948;3.146;2023-12-14T04:20:18;13.80;;;5.67;;
15921;SDS011;8060;50.948;3.146;2023-12-14T04:22:46;11.43;;;5.13;;
15921;SDS011;8060;50.948;3.146;2023-12-14T04:25:16;15.57;;;5.20;;
15921;SDS011;8060;50.948;3.146;2023-12-14T04:27:44;15.10;;;6.00;;
15921;SDS011;8060;50.948;3.146;2023-12-14T04:30:12;17.37;;;6.57;;
15921;SDS011;8060;50.948;3.146;2023-12-14T04:32:40;14.60;;;6.63;;
15921;SDS011;8060;50.948;3.146;2023-12-14T04:35:08;17.23;;;6.57;;
15921;SDS011;8060;50.948;3.146;2023-12-14T04:37:37;14.53;;;6.10;;
15921;SDS011;8060;50.948;3.146;2023-12-14T04:40:05;13.77;;;6.70;;
15921;SDS011;8060;50.948;3.146;2023-12-14T04:42:36;17.37;;;6.33;;
15921;SDS011;8060;50.948;3.146;2023-12-14T04:45:04;14.57;;;6.93;;
15921;SDS011;8060;50.948;3.146;2023-12-14T04:47:33;14.37;;;6.47;;
15921;SDS011;8060;50.948;3.146;2023-12-14T04:50:02;18.90;;;6.43;;
15921;SDS011;8060;50.948;3.146;2023-12-14T04:52:30;16.97;;;7.07;;
15921;SDS011;8060;50.948;3.146;2023-12-14T04:54:59;14.90;;;6.50;;
15921;SDS011;8060;50.948;3.146;2023-12-14T04:57:28;17.00;;;6.40;;
15921;SDS011;8060;50.948;3.146;2023-12-14T04:59:57;16.83;;;6.63;;
15921;SDS011;8060;50.948;3.146;2023-12-14T05:02:25;13.23;;;6.37;;
15921;SDS011;8060;50.948;3.146;2023-12-14T05:04:53;13.73;;;6.70;;
15921;SDS011;8060;50.948;3.146;2023-12-14T05:07:21;14.13;;;6.37;;
15921;SDS011;8060;50.948;3.146;2023-12-14T05:09:50;12.70;;;6.63;;
15921;SDS011;8060;50.948;3.146;2023-12-14T05:12:18;13.23;;;6.30;;
15921;SDS011;8060;50.948;3.146;2023-12-14T05:14:46;15.47;;;6.40;;
15921;SDS011;8060;50.948;3.146;2023-12-14T05:17:16;15.97;;;6.70;;
15921;SDS011;8060;50.948;3.146;2023-12-14T05:19:44;17.53;;;7.37;;
15921;SDS011;8060;50.948;3.146;2023-12-14T05:22:12;12.43;;;6.00;;
15921;SDS011;8060;50.948;3.146;2023-12-14T05:24:40;14.97;;;6.33;;
15921;SDS011;8060;50.948;3.146;2023-12-14T05:27:08;15.83;;;6.27;;
15921;SDS011;8060;50.948;3.146;2023-12-14T05:29:36;16.37;;;7.03;;
15921;SDS011;8060;50.948;3.146;2023-12-14T05:32:05;12.50;;;5.87;;
15921;SDS011;8060;50.948;3.146;2023-12-14T05:34:34;15.60;;;6.20;;
15921;SDS011;8060;50.948;3.146;2023-12-14T05:37:02;15.87;;;5.87;;
15921;SDS011;8060;50.948;3.146;2023-12-14T05:39:31;10.07;;;5.37;;
15921;SDS011;8060;50.948;3.146;2023-12-14T05:41:59;14.77;;;6.63;;
15921;SDS011;8060;50.948;3.146;2023-12-14T05:44:27;13.80;;;6.73;;
15921;SDS011;8060;50.948;3.146;2023-12-14T05:46:55;15.27;;;6.33;;
15921;SDS011;8060;50.948;3.146;2023-12-14T05:49:23;15.80;;;7.40;;
15921;SDS011;8060;50.948;3.146;2023-12-14T05:51:53;18.37;;;6.97;;
15921;SDS011;8060;50.948;3.146;2023-12-14T05:54:21;15.07;;;6.57;;
15921;SDS011;8060;50.948;3.146;2023-12-14T05:56:49;15.43;;;7.00;;
15921;SDS011;8060;50.948;3.146;2023-12-14T05:59:17;18.57;;;6.77;;
15921;SDS011;8060;50.948;3.146;2023-12-14T06:01:45;13.17;;;6.80;;
15921;SDS011;8060;50.948;3.146;2023-12-14T06:04:14;17.50;;;6.93;;
15921;SDS011;8060;50.948;3.146;2023-12-14T06:06:42;15.57;;;6.27;;
15921;SDS011;8060;50.948;3.146;2023-12-14T06:09:11;13.90;;;6.63;;
15921;SDS011;8060;50.948;3.146;2023-12-14T06:11:40;19.30;;;7.27;;
15921;SDS011;8060;50.948;3.146;2023-12-14T06:14:08;15.53;;;7.33;;
15921;SDS011;8060;50.948;3.146;2023-12-14T06:16:36;16.93;;;7.77;;
15921;SDS011;8060;50.948;3.146;2023-12-14T06:19:04;17.67;;;7.63;;
15921;SDS011;8060;50.948;3.146;2023-12-14T06:21:32;18.60;;;7.60;;
15921;SDS011;8060;50.948;3.146;2023-12-14T06:24:00;15.03;;;7.37;;
15921;SDS011;8060;50.948;3.146;2023-12-14T06:26:30;14.17;;;6.93;;
15921;SDS011;8060;50.948;3.146;2023-12-14T06:28:58;17.17;;;7.10;;
15921;SDS011;8060;50.948;3.146;2023-12-14T06:31:26;16.50;;;7.13;;
15921;SDS011;8060;50.948;3.146;2023-12-14T06:33:54;14.77;;;7.80;;
15921;SDS011;8060;50.948;3.146;2023-12-14T06:36:26;16.43;;;7.60;;
15921;SDS011;8060;50.948;3.146;2023-12-14T06:38:56;14.37;;;6.87;;
15921;SDS011;8060;50.948;3.146;2023-12-14T06:41:24;14.37;;;7.43;;
15921;SDS011;8060;50.948;3.146;2023-12-14T06:43:55;19.53;;;7.37;;
15921;SDS011;8060;50.948;3.146;2023-12-14T06:46:23;16.63;;;7.27;;
15921;SDS011;8060;50.948;3.146;2023-12-14T06:48:51;15.60;;;7.77;;
15921;SDS011;8060;50.948;3.146;2023-12-14T06:51:20;16.97;;;7.63;;
15921;SDS011;8060;50.948;3.146;2023-12-14T06:53:48;18.23;;;7.77;;
15921;SDS011;8060;50.948;3.146;2023-12-14T06:56:16;16.00;;;8.27;;
15921;SDS011;8060;50.948;3.146;2023-12-14T06:58:44;16.97;;;8.30;;
15921;SDS011;8060;50.948;3.146;2023-12-14T07:01:17;16.13;;;8.17;;
15921;SDS011;8060;50.948;3.146;2023-12-14T07:03:45;16.07;;;7.47;;
15921;SDS011;8060;50.948;3.146;2023-12-14T07:06:14;16.57;;;7.73;;
15921;SDS011;8060;50.948;3.146;2023-12-14T07:08:44;20.70;;;8.53;;
15921;SDS011;8060;50.948;3.146;2023-12-14T07:11:14;18.60;;;9.10;;
15921;SDS011;8060;50.948;3.146;2023-12-14T07:13:42;18.07;;;8.80;;
15921;SDS011;8060;50.948;3.146;2023-12-14T07:16:10;12.13;;;8.07;;
15921;SDS011;8060;50.948;3.146;2023-12-14T07:18:40;17.40;;;8.57;;
15921;SDS011;8060;50.948;3.146;2023-12-14T07:21:09;14.40;;;8.53;;
15921;SDS011;8060;50.948;3.146;2023-12-14T07:23:37;20.93;;;8.43;;
15921;SDS011;8060;50.948;3.146;2023-12-14T07:26:05;14.93;;;8.63;;
15921;SDS011;8060;50.948;3.146;2023-12-14T07:28:34;18.60;;;8.97;;
15921;SDS011;8060;50.948;3.146;2023-12-14T07:31:02;20.17;;;9.03;;
15921;SDS011;8060;50.948;3.146;2023-12-14T07:33:30;18.00;;;8.67;;
15921;SDS011;8060;50.948;3.146;2023-12-14T07:36:00;20.73;;;9.23;;
15921;SDS011;8060;50.948;3.146;2023-12-14T07:38:29;20.90;;;10.03;;
15921;SDS011;8060;50.948;3.146;2023-12-14T07:40:57;23.50;;;10.10;;
15921;SDS011;8060;50.948;3.146;2023-12-14T07:43:26;15.93;;;8.53;;
15921;SDS011;8060;50.948;3.146;2023-12-14T07:45:54;22.07;;;9.83;;
15921;SDS011;8060;50.948;3.146;2023-12-14T07:48:22;20.10;;;9.83;;
15921;SDS011;8060;50.948;3.146;2023-12-14T07:50:50;16.87;;;9.57;;
15921;SDS011;8060;50.948;3.146;2023-12-14T07:53:20;22.67;;;9.87;;
15921;SDS011;8060;50.948;3.146;2023-12-14T07:55:48;19.57;;;10.10;;
15921;SDS011;8060;50.948;3.146;2023-12-14T07:58:16;20.90;;;10.20;;
15921;SDS011;8060;50.948;3.146;2023-12-14T08:00:44;17.50;;;9.83;;
15921;SDS011;8060;50.948;3.146;2023-12-14T08:03:12;22.13;;;9.47;;
15921;SDS011;8060;50.948;3.146;2023-12-14T08:05:41;15.60;;;9.53;;
15921;SDS011;8060;50.948;3.146;2023-12-14T08:08:09;18.53;;;9.90;;
15921;SDS011;8060;50.948;3.146;2023-12-14T08:10:38;20.00;;;10.10;;
15921;SDS011;8060;50.948;3.146;2023-12-14T08:13:07;20.90;;;9.83;;
15921;SDS011;8060;50.948;3.146;2023-12-14T08:15:35;21.87;;;10.87;;
15921;SDS011;8060;50.948;3.146;2023-12-14T08:18:03;20.13;;;10.20;;
15921;SDS011;8060;50.948;3.146;2023-12-14T08:20:31;22.50;;;10.33;;
15921;SDS011;8060;50.948;3.146;2023-12-14T08:22:59;21.07;;;10.77;;
15921;SDS011;8060;50.948;3.146;2023-12-14T08:25:27;26.23;;;14.07;;
15921;SDS011;8060;50.948;3.146;2023-12-14T08:27:57;23.10;;;12.70;;
15921;SDS011;8060;50.948;3.146;2023-12-14T08:30:28;23.53;;;11.33;;
15921;SDS011;8060;50.948;3.146;2023-12-14T08:32:56;23.07;;;11.00;;
15921;SDS011;8060;50.948;3.146;2023-12-14T08:35:25;23.03;;;9.97;;
15921;SDS011;8060;50.948;3.146;2023-12-14T08:37:53;21.23;;;11.30;;
15921;SDS011;8060;50.948;3.146;2023-12-14T08:40:21;20.30;;;9.73;;
15921;SDS011;8060;50.948;3.146;2023-12-14T08:42:49;18.67;;;10.67;;
15921;SDS011;8060;50.948;3.146;2023-12-14T08:45:19;22.53;;;10.63;;
15921;SDS011;8060;50.948;3.146;2023-12-14T08:47:47;18.93;;;11.07;;
15921;SDS011;8060;50.948;3.146;2023-12-14T08:50:15;19.80;;;10.30;;
15921;SDS011;8060;50.948;3.146;2023-12-14T08:52:44;23.43;;;9.67;;
15921;SDS011;8060;50.948;3.146;2023-12-14T08:55:13;17.07;;;9.27;;
15921;SDS011;8060;50.948;3.146;2023-12-14T08:57:41;23.47;;;9.70;;
15921;SDS011;8060;50.948;3.146;2023-12-14T09:00:10;19.03;;;9.13;;
15921;SDS011;8060;50.948;3.146;2023-12-14T09:02:40;17.60;;;8.60;;
15921;SDS011;8060;50.948;3.146;2023-12-14T09:05:08;21.17;;;8.97;;
15921;SDS011;8060;50.948;3.146;2023-12-14T09:07:41;21.17;;;8.93;;
15921;SDS011;8060;50.948;3.146;2023-12-14T09:10:09;16.00;;;8.70;;
15921;SDS011;8060;50.948;3.146;2023-12-14T09:12:37;12.87;;;8.17;;
15921;SDS011;8060;50.948;3.146;2023-12-14T09:15:06;19.00;;;8.23;;
15921;SDS011;8060;50.948;3.146;2023-12-14T09:17:34;25.37;;;9.20;;
15921;SDS011;8060;50.948;3.146;2023-12-14T09:20:06;16.83;;;8.30;;
15921;SDS011;8060;50.948;3.146;2023-12-14T09:22:35;15.70;;;7.40;;
15921;SDS011;8060;50.948;3.146;2023-12-14T09:25:03;16.23;;;7.80;;
15921;SDS011;8060;50.948;3.146;2023-12-14T09:27:32;20.73;;;9.20;;
15921;SDS011;8060;50.948;3.146;2023-12-14T09:30:01;16.77;;;9.07;;
15921;SDS011;8060;50.948;3.146;2023-12-14T09:32:30;22.33;;;9.07;;
15921;SDS011;8060;50.948;3.146;2023-12-14T09:34:59;20.60;;;9.23;;
15921;SDS011;8060;50.948;3.146;2023-12-14T09:37:28;21.57;;;10.33;;
15921;SDS011;8060;50.948;3.146;2023-12-14T09:39:56;16.23;;;9.90;;
15921;SDS011;8060;50.948;3.146;2023-12-14T09:42:25;18.50;;;9.27;;
15921;SDS011;8060;50.948;3.146;2023-12-14T09:44:53;15.83;;;9.50;;
15921;SDS011;8060;50.948;3.146;2023-12-14T09:47:22;16.43;;;9.07;;
15921;SDS011;8060;50.948;3.146;2023-12-14T09:49:51;20.23;;;7.60;;
15921;SDS011;8060;50.948;3.146;2023-12-14T09:52:20;24.93;;;8.70;;
15921;SDS011;8060;50.948;3.146;2023-12-14T09:54:49;20.07;;;9.60;;
15921;SDS011;8060;50.948;3.146;2023-12-14T09:57:21;25.33;;;11.00;;
15921;SDS011;8060;50.948;3.146;2023-12-14T09:59:52;22.47;;;10.60;;
15921;SDS011;8060;50.948;3.146;2023-12-14T10:02:22;21.20;;;9.63;;
15921;SDS011;8060;50.948;3.146;2023-12-14T10:04:53;22.13;;;8.97;;
15921;SDS011;8060;50.948;3.146;2023-12-14T10:07:21;21.60;;;9.03;;
15921;SDS011;8060;50.948;3.146;2023-12-14T10:09:51;18.67;;;8.43;;
15921;SDS011;8060;50.948;3.146;2023-12-14T10:12:19;19.60;;;9.67;;
15921;SDS011;8060;50.948;3.146;2023-12-14T10:14:49;19.47;;;8.80;;
15921;SDS011;8060;50.948;3.146;2023-12-14T10:17:28;18.30;;;8.87;;
15921;SDS011;8060;50.948;3.146;2023-12-14T10:19:59;19.00;;;8.20;;
15921;SDS011;8060;50.948;3.146;2023-12-14T10:22:30;16.00;;;7.37;;
15921;SDS011;8060;50.948;3.146;2023-12-14T10:25:00;14.70;;;7.10;;
15921;SDS011;8060;50.948;3.146;2023-12-14T10:27:29;14.50;;;7.27;;
15921;SDS011;8060;50.948;3.146;2023-12-14T10:29:59;14.87;;;6.10;;
15921;SDS011;8060;50.948;3.146;2023-12-14T10:32:27;16.53;;;6.03;;
15921;SDS011;8060;50.948;3.146;2023-12-14T10:34:56;12.67;;;6.50;;
15921;SDS011;8060;50.948;3.146;2023-12-14T10:37:24;12.63;;;5.17;;
15921;SDS011;8060;50.948;3.146;2023-12-14T10:39:53;12.33;;;4.80;;
15921;SDS011;8060;50.948;3.146;2023-12-14T10:42:24;13.70;;;4.43;;
15921;SDS011;8060;50.948;3.146;2023-12-14T10:44:55;12.90;;;4.50;;
15921;SDS011;8060;50.948;3.146;2023-12-14T10:47:43;9.33;;;3.17;;
15921;SDS011;8060;50.948;3.146;2023-12-14T10:50:14;13.97;;;3.10;;
15921;SDS011;8060;50.948;3.146;2023-12-14T10:52:43;11.27;;;3.93;;
15921;SDS011;8060;50.948;3.146;2023-12-14T10:55:15;12.63;;;3.80;;
15921;SDS011;8060;50.948;3.146;2023-12-14T10:57:50;12.20;;;3.00;;
15921;SDS011;8060;50.948;3.146;2023-12-14T11:00:19;15.77;;;2.83;;
15921;SDS011;8060;50.948;3.146;2023-12-14T11:02:47;15.57;;;3.10;;
15921;SDS011;8060;50.948;3.146;2023-12-14T11:05:16;12.40;;;3.23;;
15921;SDS011;8060;50.948;3.146;2023-12-14T11:07:50;9.30;;;3.70;;
15921;SDS011;8060;50.948;3.146;2023-12-14T11:10:22;6.93;;;2.70;;
15921;SDS011;8060;50.948;3.146;2023-12-14T11:12:59;7.23;;;2.97;;
15921;SDS011;8060;50.948;3.146;2023-12-14T11:15:29;12.43;;;3.50;;
15921;SDS011;8060;50.948;3.146;2023-12-14T11:20:55;7.33;;;3.10;;
15921;SDS011;8060;50.948;3.146;2023-12-14T11:23:35;12.57;;;3.20;;
15921;SDS011;8060;50.948;3.146;2023-12-14T11:26:06;11.43;;;2.93;;
15921;SDS011;8060;50.948;3.146;2023-12-14T11:28:38;11.93;;;3.20;;
15921;SDS011;8060;50.948;3.146;2023-12-14T11:31:09;10.03;;;3.13;;
15921;SDS011;8060;50.948;3.146;2023-12-14T11:33:38;9.93;;;3.17;;
15921;SDS011;8060;50.948;3.146;2023-12-14T11:36:11;14.30;;;3.50;;
15921;SDS011;8060;50.948;3.146;2023-12-14T11:38:40;12.10;;;3.53;;
15921;SDS011;8060;50.948;3.146;2023-12-14T11:41:09;8.57;;;3.00;;
15921;SDS011;8060;50.948;3.146;2023-12-14T11:43:42;9.80;;;3.53;;
15921;SDS011;8060;50.948;3.146;2023-12-14T11:46:11;7.47;;;3.10;;
15921;SDS011;8060;50.948;3.146;2023-12-14T11:48:43;8.07;;;3.37;;
15921;SDS011;8060;50.948;3.146;2023-12-14T11:51:12;8.87;;;3.20;;
15921;SDS011;8060;50.948;3.146;2023-12-14T11:53:43;9.23;;;3.03;;
15921;SDS011;8060;50.948;3.146;2023-12-14T11:56:12;7.00;;;2.70;;
15921;SDS011;8060;50.948;3.146;2023-12-14T11:58:44;12.63;;;3.00;;
15921;SDS011;8060;50.948;3.146;2023-12-14T12:01:14;8.37;;;2.77;;
15921;SDS011;8060;50.948;3.146;2023-12-14T12:03:43;6.37;;;2.87;;
15921;SDS011;8060;50.948;3.146;2023-12-14T12:06:19;11.50;;;2.60;;
15921;SDS011;8060;50.948;3.146;2023-12-14T12:08:49;9.30;;;2.40;;
15921;SDS011;8060;50.948;3.146;2023-12-14T12:11:17;7.40;;;2.43;;
15921;SDS011;8060;50.948;3.146;2023-12-14T12:13:51;8.17;;;2.00;;
15921;SDS011;8060;50.948;3.146;2023-12-14T12:16:20;7.10;;;2.37;;
15921;SDS011;8060;50.948;3.146;2023-12-14T12:18:48;5.40;;;1.87;;
15921;SDS011;8060;50.948;3.146;2023-12-14T12:21:18;7.73;;;2.40;;
15921;SDS011;8060;50.948;3.146;2023-12-14T12:23:46;6.13;;;2.47;;
15921;SDS011;8060;50.948;3.146;2023-12-14T12:26:14;8.80;;;2.50;;
15921;SDS011;8060;50.948;3.146;2023-12-14T12:28:42;5.97;;;2.43;;
15921;SDS011;8060;50.948;3.146;2023-12-14T12:31:12;12.40;;;2.43;;
15921;SDS011;8060;50.948;3.146;2023-12-14T12:33:40;6.57;;;2.20;;
15921;SDS011;8060;50.948;3.146;2023-12-14T12:36:08;7.83;;;1.97;;
15921;SDS011;8060;50.948;3.146;2023-12-14T12:38:37;10.30;;;2.27;;
15921;SDS011;8060;50.948;3.146;2023-12-14T12:41:07;7.23;;;2.33;;
15921;SDS011;8060;50.948;3.146;2023-12-14T12:43:35;10.30;;;2.10;;
15921;SDS011;8060;50.948;3.146;2023-12-14T12:46:03;8.77;;;2.17;;
15921;SDS011;8060;50.948;3.146;2023-12-14T12:48:33;6.87;;;1.70;;
15921;SDS011;8060;50.948;3.146;2023-12-14T12:51:02;10.27;;;2.43;;
15921;SDS011;8060;50.948;3.146;2023-12-14T12:53:30;8.13;;;2.13;;
15921;SDS011;8060;50.948;3.146;2023-12-14T12:55:59;5.93;;;2.10;;
15921;SDS011;8060;50.948;3.146;2023-12-14T12:58:28;9.30;;;2.20;;
15921;SDS011;8060;50.948;3.146;2023-12-14T13:00:56;7.83;;;2.03;;
15921;SDS011;8060;50.948;3.146;2023-12-14T13:03:25;7.63;;;1.73;;
15921;SDS011;8060;50.948;3.146;2023-12-14T13:05:54;6.97;;;1.80;;
15921;SDS011;8060;50.948;3.146;2023-12-14T13:08:22;8.77;;;1.93;;
15921;SDS011;8060;50.948;3.146;2023-12-14T13:10:51;7.50;;;2.23;;
15921;SDS011;8060;50.948;3.146;2023-12-14T13:13:21;8.70;;;1.90;;
15921;SDS011;8060;50.948;3.146;2023-12-14T13:15:49;8.03;;;1.93;;
15921;SDS011;8060;50.948;3.146;2023-12-14T13:18:17;9.10;;;2.20;;
15921;SDS011;8060;50.948;3.146;2023-12-14T13:20:46;7.23;;;2.00;;
15921;SDS011;8060;50.948;3.146;2023-12-14T13:23:15;6.53;;;1.77;;
15921;SDS011;8060;50.948;3.146;2023-12-14T13:25:43;10.77;;;2.27;;
15921;SDS011;8060;50.948;3.146;2023-12-14T13:28:12;8.47;;;2.00;;
15921;SDS011;8060;50.948;3.146;2023-12-14T13:30:43;5.80;;;1.93;;
15921;SDS011;8060;50.948;3.146;2023-12-14T13:33:12;10.47;;;2.37;;
15921;SDS011;8060;50.948;3.146;2023-12-14T13:35:40;8.93;;;2.60;;
15921;SDS011;8060;50.948;3.146;2023-12-14T13:38:09;7.47;;;2.13;;
15921;SDS011;8060;50.948;3.146;2023-12-14T13:40:39;8.53;;;2.27;;
15921;SDS011;8060;50.948;3.146;2023-12-14T13:43:07;13.67;;;2.00;;
15921;SDS011;8060;50.948;3.146;2023-12-14T13:45:37;9.67;;;2.00;;
15921;SDS011;8060;50.948;3.146;2023-12-14T13:48:05;8.30;;;2.00;;
15921;SDS011;8060;50.948;3.146;2023-12-14T13:50:35;10.77;;;2.33;;
15921;SDS011;8060;50.948;3.146;2023-12-14T13:53:03;9.90;;;2.30;;
15921;SDS011;8060;50.948;3.146;2023-12-14T13:55:32;5.87;;;1.90;;
15921;SDS011;8060;50.948;3.146;2023-12-14T13:58:02;9.33;;;2.30;;
15921;SDS011;8060;50.948;3.146;2023-12-14T14:00:30;9.80;;;2.13;;
15921;SDS011;8060;50.948;3.146;2023-12-14T14:02:59;6.37;;;2.43;;
15921;SDS011;8060;50.948;3.146;2023-12-14T14:05:28;11.37;;;2.23;;
15921;SDS011;8060;50.948;3.146;2023-12-14T14:07:56;8.57;;;2.30;;
15921;SDS011;8060;50.948;3.146;2023-12-14T14:10:24;8.03;;;2.60;;
15921;SDS011;8060;50.948;3.146;2023-12-14T14:12:52;7.37;;;2.30;;
15921;SDS011;8060;50.948;3.146;2023-12-14T14:15:22;9.80;;;2.50;;
15921;SDS011;8060;50.948;3.146;2023-12-14T14:17:50;9.73;;;2.77;;
15921;SDS011;8060;50.948;3.146;2023-12-14T14:20:20;9.23;;;2.40;;
15921;SDS011;8060;50.948;3.146;2023-12-14T14:22:50;6.90;;;2.50;;
15921;SDS011;8060;50.948;3.146;2023-12-14T14:25:18;8.37;;;2.13;;
15921;SDS011;8060;50.948;3.146;2023-12-14T14:27:46;7.50;;;2.70;;
15921;SDS011;8060;50.948;3.146;2023-12-14T14:30:14;5.97;;;2.00;;
15921;SDS011;8060;50.948;3.146;2023-12-14T14:32:44;7.47;;;2.17;;
15921;SDS011;8060;50.948;3.146;2023-12-14T14:35:13;7.13;;;2.90;;
15921;SDS011;8060;50.948;3.146;2023-12-14T14:37:41;9.60;;;2.27;;
15921;SDS011;8060;50.948;3.146;2023-12-14T14:40:12;8.83;;;2.43;;
15921;SDS011;8060;50.948;3.146;2023-12-14T14:42:41;6.47;;;2.40;;
15921;SDS011;8060;50.948;3.146;2023-12-14T14:45:10;8.60;;;2.57;;
15921;SDS011;8060;50.948;3.146;2023-12-14T14:47:39;9.43;;;2.60;;
15921;SDS011;8060;50.948;3.146;2023-12-14T14:50:10;7.17;;;2.57;;
15921;SDS011;8060;50.948;3.146;2023-12-14T14:52:39;7.10;;;2.77;;
15921;SDS011;8060;50.948;3.146;2023-12-14T14:55:07;7.67;;;2.60;;
15921;SDS011;8060;50.948;3.146;2023-12-14T14:57:36;12.03;;;2.67;;
15921;SDS011;8060;50.948;3.146;2023-12-14T15:00:04;11.50;;;3.03;;